Sunday, July 22, 2018, 10:25 AM EDT
Back to Local

KAUG, Augusta State Airport

Location: Augusta, ME, United States Lat: 44.317
Local Time: 10:25 AM EDT (14:25 GMT) Lon: -69.8
Time Zone: US/Eastern Elev: 351 ft

Show me the last for .
Show Coded

Time T Td Feel RH Dir Speed Gust Alt SLP Vis Weather Sky Remarks
2018-07-22 10:15 68 57 - 67 80° 6 - 30.21 - 10 BKN017 OVC060 None
2018-07-22 09:53 68 58 - 70 80° 6 - 30.21 30.21 10 SCT065 None
2018-07-22 08:53 63 58 - 83 Variable 3 - 30.21 30.20 10 SCT008 None
2018-07-22 08:12 60 57 - 89 100° 3 - 30.21 - 10 OVC005 None
2018-07-22 07:53 59 57 - 93 70° 3 - 30.20 30.20 8 OVC003 6-hr Min Temp (8am): 55.0°F
6-hr Max Temp (8am): 59.0°F
2018-07-22 06:53 57 56 - 96 100° 6 - 30.19 30.19 9 OVC004 None
2018-07-22 06:03 57 56 - 96 120° 5 - 30.19 - 3 BR OVC002 None
2018-07-22 05:59 57 56 - 96 130° 6 - 30.19 - 1 BR VV002 None
2018-07-22 05:53 56 56 - 100 150° 3 - 30.19 30.19 0 FG VV002 None
2018-07-22 05:11 55 55 - 100 140° 5 - 30.18 - 0 FG VV002 None
2018-07-22 05:02 55 55 - 100 160° 7 - 30.19 - 1 BR BKN003 None
2018-07-22 04:53 56 54 - 93 150° 6 - 30.18 30.18 10 BKN004 None
2018-07-22 04:48 55 54 - 93 120° 6 - 30.18 - 10 SCT004 None
2018-07-22 03:53 56 54 - 93 110° 3 - 30.16 30.16 10 CLR None
2018-07-22 02:53 57 54 - 89 - Calm - 30.16 30.15 10 CLR None
2018-07-22 01:53 57 54 - 89 - Calm - 30.17 30.16 10 CLR 6-hr Min Temp (2am): 57.0°F
6-hr Max Temp (2am): 71.1°F
2018-07-22 00:53 59 54 - 83 150° 3 - 30.17 30.16 10 CLR 24-hr Min Temp (1am): 55.9°F
24-hr Max Temp (1am): 80.1°F
2018-07-21 23:53 61 53 - 75 - Calm - 30.17 30.16 10 CLR None
2018-07-21 22:53 63 53 - 70 240° 3 - 30.17 30.17 10 CLR None
2018-07-21 21:53 64 53 - 67 - Calm - 30.17 30.17 10 CLR None
2018-07-21 20:53 68 51 - 54 180° 6 - 30.17 30.17 10 CLR None
2018-07-21 19:53 71 53 76 53 Variable 6 - 30.16 30.16 10 CLR 6-hr Min Temp (8pm): 71.1°F
6-hr Max Temp (8pm): 80.1°F
2018-07-21 18:53 75 55 77 49 190° 8 - 30.15 30.15 10 CLR None
2018-07-21 17:53 78 54 79 43 160° 8 - 30.14 30.14 10 CLR None
2018-07-21 16:53 79 54 79 42 170° 8 - 30.14 30.14 10 CLR None
2018-07-21 15:53 79 55 79 43 180° 5 - 30.15 30.14 10 CLR None
2018-07-21 14:53 79 54 79 42 160° 10 - 30.15 30.15 10 CLR None
2018-07-21 13:53 78 54 79 43 Variable 3 - 30.17 30.16 10 CLR 6-hr Min Temp (2pm): 66.0°F
6-hr Max Temp (2pm): 78.1°F
2018-07-21 12:53 76 54 78 46 - Calm - 30.18 30.18 10 CLR None
2018-07-21 11:53 74 52 77 46 180° 7 - 30.19 30.19 10 CLR None
2018-07-21 10:53 73 54 76 51 160° 6 - 30.20 30.20 10 CLR None

Support USWX by starting your Amazon purchase here.